Latest Weather Observations for Rutherglen

IDV60801

Issued at 6:32 pm EST Tuesday 27 September 2016 (issued every 30 minutes, with the page automatically refreshed every 10 minutes)

About weather observations | Map of weather stations | Latest weather observations for VIC | Other Formats
Station Details ID: 082039 Name: RUTHERGLEN RESEARCH Lat: -36.10 Lon: 146.51 Height: 175.0 m
Data from the previous 72 hours. | See also: Recent months at Rutherglen
Date/Time
EST
Temp
°C
App
Temp
°C
Dew
Point
°C
Rel
Hum
%
Delta-T
°C
Wind Press
QNH
hPa
Press
MSL
hPa
Rain since
9am
mm
Dir  Spd
km/h
Gust
km/h
Spd
kts
Gust
kts
27/06:30pm 12.0 10.0 8.7 80 1.7 WNW 9 11 5 6 - - 0.0
27/06:00pm 12.6 11.7 9.1 79 1.8 WNW 4 7 2 4 - - 0.0
27/05:30pm 12.3 11.0 9.3 82 1.5 WSW 6 9 3 5 - - 0.0
27/05:00pm 12.9 10.8 8.4 74 2.3 W 9 15 5 8 - - 0.0
27/04:30pm 14.5 11.2 8.0 65 3.3 W 15 20 8 11 - - 0.0
27/04:00pm 14.6 11.6 7.9 64 3.4 WSW 13 17 7 9 - - 0.0
27/03:30pm 14.6 10.4 7.6 63 3.5 W 19 26 10 14 - - 0.0
27/03:00pm 14.4 10.3 7.9 65 3.3 W 19 26 10 14 - - 0.0
27/02:30pm 14.2 10.0 7.5 64 3.3 W 19 30 10 16 - - 0.0
27/02:00pm 13.5 8.7 7.3 66 3.1 W 22 30 12 16 - - 0.0
27/01:30pm 12.8 8.9 7.3 69 2.7 W 17 24 9 13 - - 0.0
27/01:00pm 12.7 8.1 6.3 65 3.1 WSW 20 26 11 14 - - 0.0
27/12:30pm 13.6 9.8 7.4 66 3.1 W 17 26 9 14 - - 0.0
27/12:00pm 12.2 8.1 7.7 74 2.2 W 19 26 10 14 - - 0.0
27/11:30am 11.7 7.5 7.4 75 2.1 WSW 19 26 10 14 - - 0.0
27/11:00am 11.9 7.6 7.2 73 2.3 W 19 28 10 15 - - 0.0
27/10:30am 11.0 7.5 7.3 78 1.8 W 15 22 8 12 - - 0.0
27/10:00am 10.6 7.8 8.7 88 0.9 WSW 13 19 7 10 - - 0.0
27/09:30am 9.1 7.1 8.8 98 0.1 W 9 15 5 8 - - 0.0
27/09:00am 8.8 6.4 8.8 100 0.0 WSW 11 17 6 9 - - 2.6
27/08:30am 7.9 4.6 7.9 100 0.0 WSW 15 20 8 11 - - 2.6
27/08:00am 7.2 2.9 7.2 100 0.0 W 19 22 10 12 - - 2.6
27/07:30am 6.9 3.0 6.9 100 0.0 W 17 24 9 13 - - 2.6
27/07:00am 6.5 2.8 6.5 100 0.0 W 15 20 8 11 - - 2.6
27/06:30am 5.5 2.4 5.5 100 0.0 W 11 13 6 7 - - 2.6
27/06:00am 5.1 2.3 5.1 100 0.0 W 9 13 5 7 - - 2.6
27/05:30am 5.6 2.1 5.6 100 0.0 W 13 17 7 9 - - 2.6
27/05:00am 5.7 3.0 5.7 100 0.0 W 9 15 5 8 - - 2.6
27/04:30am 6.4 3.1 6.4 100 0.0 W 13 17 7 9 - - 2.6
27/04:00am 6.8 4.0 6.8 100 0.0 WNW 11 17 6 9 - - 2.6
27/03:30am 7.6 3.8 7.6 100 0.0 W 17 20 9 11 - - 2.6
27/03:00am 8.0 4.7 8.0 100 0.0 W 15 19 8 10 - - 2.6
27/02:30am 9.3 6.7 9.3 100 0.0 W 13 19 7 10 - - 2.6
27/02:00am 9.5 7.3 9.5 100 0.0 NW 11 17 6 9 - - 2.4
27/01:30am 9.2 7.7 9.2 100 0.0 N 7 13 4 7 - - 2.4
27/01:00am 9.1 6.8 9.1 100 0.0 NNE 11 15 6 8 - - 2.2
27/12:30am 9.2 7.7 9.2 100 0.0 NE 7 13 4 7 - - 0.8
27/12:00am 9.7 8.0 9.7 100 0.0 NNE 9 17 5 9 - - 0.8
 
Date/Time
EST
Temp
°C
App
Temp
°C
Dew
Point
°C
Rel
Hum
%
Delta-T
°C
Wind Press
QNH
hPa
Press
MSL
hPa
Rain since
9am
mm
Dir  Spd
km/h
Gust
km/h
Spd
kts
Gust
kts
26/11:30pm 9.8 8.5 9.8 100 0.0 NE 7 11 4 6 - - 0.8
26/11:00pm 10.1 8.8 10.1 100 0.0 NNE 7 13 4 7 - - 0.6
26/10:30pm 10.0 8.7 10.0 100 0.0 NE 7 11 4 6 - - 0.6
26/10:00pm 10.4 10.5 10.2 99 0.1 CALM 0 6 0 3 - - 0.4
26/09:30pm 10.4 8.7 9.9 97 0.3 ENE 9 13 5 7 - - 0.2
26/09:00pm 9.7 7.6 9.7 100 0.0 ENE 11 17 6 9 - - 0.2
26/08:30pm 8.5 6.5 8.5 100 0.0 E 9 11 5 6 - - 0.2
26/08:00pm 8.1 6.0 8.1 100 0.0 E 9 9 5 5 - - 0.2
26/07:30pm 8.4 6.7 8.4 100 0.0 ENE 7 9 4 5 - - 0.2
26/07:00pm 9.3 7.8 9.3 100 0.0 ENE 7 9 4 5 - - 0.2
26/06:30pm 10.1 8.7 9.5 96 0.3 ENE 7 9 4 5 - - 0.2
26/06:00pm 11.9 10.2 9.8 87 1.1 ENE 9 13 5 7 - - 0.2
26/05:30pm 13.2 11.6 10.2 82 1.6 ESE 9 11 5 6 - - 0.2
26/05:00pm 13.6 12.2 8.9 73 2.4 ENE 6 6 3 3 - - 0.0
26/04:30pm 14.3 13.1 8.0 66 3.2 N 4 6 2 3 - - 0.0
26/04:00pm 13.9 11.9 7.2 64 3.3 NW 7 11 4 6 - - 0.0
26/03:30pm 14.2 11.4 7.0 62 3.5 NW 11 13 6 7 - - 0.0
26/03:00pm 14.5 12.0 6.6 59 3.9 WNW 9 17 5 9 - - 0.0
26/02:30pm 14.4 12.2 7.7 64 3.3 WNW 9 13 5 7 - - 0.0
26/02:00pm 15.0 11.5 7.1 59 3.9 WNW 15 24 8 13 - - 0.0
26/01:30pm 14.1 10.5 6.7 61 3.6 WNW 15 22 8 12 - - 0.0
26/01:00pm 13.9 10.7 7.0 63 3.4 WNW 13 20 7 11 - - 0.0
26/12:30pm 13.4 9.4 6.5 63 3.3 W 17 22 9 12 - - 0.0
26/12:00pm 13.8 10.9 6.7 62 3.5 WNW 11 19 6 10 - - 0.0
26/11:30am 14.4 11.5 6.3 58 3.9 NW 11 17 6 9 - - 0.0
26/11:00am 13.9 11.4 8.1 68 2.9 WSW 11 20 6 11 - - 0.0
26/10:30am 13.5 11.3 7.9 69 2.8 NNW 9 11 5 6 - - 0.0
26/10:00am 12.7 11.4 9.2 79 1.8 WNW 6 9 3 5 - - 0.0
26/09:30am 11.6 10.7 10.5 93 0.6 SSW 6 9 3 5 - - 0.0
26/09:00am 10.0 10.0 9.9 99 0.1 CALM 0 0 0 0 - - 0.0
26/08:30am 9.0 8.0 9.0 100 0.0 E 4 7 2 4 - - 0.0
26/08:00am 8.3 6.6 8.3 100 0.0 NE 7 13 4 7 - - 0.0
26/07:30am 7.1 5.1 7.1 100 0.0 W 7 15 4 8 - - 0.0
26/07:00am 6.6 5.8 6.6 100 0.0 CALM 0 0 0 0 - - 0.0
26/06:30am 4.8 3.6 4.8 100 0.0 CALM 0 0 0 0 - - 0.0
26/06:00am 4.6 3.4 4.6 100 0.0 CALM 0 0 0 0 - - 0.0
26/05:30am 4.7 3.5 4.7 100 0.0 CALM 0 0 0 0 - - 0.0
26/05:00am 3.9 2.6 3.9 100 0.0 CALM 0 0 0 0 - - 0.0
26/04:30am 3.8 2.4 3.8 100 0.0 CALM 0 0 0 0 - - 0.0
26/04:00am 3.9 2.6 3.9 100 0.0 CALM 0 0 0 0 - - 0.0
26/03:30am 3.9 2.6 3.9 100 0.0 CALM 0 0 0 0 - - 0.0
26/03:00am 4.0 2.7 4.0 100 0.0 CALM 0 0 0 0 - - 0.0
26/02:30am 4.1 2.8 4.1 100 0.0 CALM 0 0 0 0 - - 0.0
26/02:00am 4.0 2.3 4.0 100 0.0 ESE 2 6 1 3 - - 0.0
26/01:30am 3.9 1.4 3.9 100 0.0 W 6 7 3 4 - - 0.0
26/01:00am 3.9 2.6 3.9 100 0.0 CALM 0 0 0 0 - - 0.0
26/12:30am 4.2 2.9 4.2 100 0.0 CALM 0 0 0 0 - - 0.0
26/12:00am 4.5 3.3 4.5 100 0.0 CALM 0 0 0 0 - - 0.0
 
Date/Time
EST
Temp
°C
App
Temp
°C
Dew
Point
°C
Rel
Hum
%
Delta-T
°C
Wind Press
QNH
hPa
Press
MSL
hPa
Rain since
9am
mm
Dir  Spd
km/h
Gust
km/h
Spd
kts
Gust
kts
25/11:30pm 4.3 3.0 4.3 100 0.0 CALM 0 0 0 0 - - 0.0
25/11:00pm 4.6 3.4 4.6 100 0.0 CALM 0 0 0 0 - - 0.0
25/10:30pm 5.4 4.4 5.4 100 0.0 CALM 0 0 0 0 - - 0.0
25/10:00pm 6.3 5.1 6.3 100 0.0 ENE 2 6 1 3 - - 0.0
25/09:30pm 6.2 4.2 6.2 100 0.0 W 6 6 3 3 - - 0.0
25/09:00pm 6.3 3.7 6.2 99 0.0 W 9 9 5 5 - - 0.0
25/08:30pm 6.8 5.7 6.8 100 0.0 W 2 7 1 4 - - 0.0
25/08:00pm 7.7 6.0 7.6 99 0.0 SSW 6 6 3 3 - - 0.0
25/07:30pm 8.5 5.9 6.3 86 1.0 W 9 9 5 5 - - 0.0
25/07:00pm 8.5 6.0 6.5 87 0.9 W 9 13 5 7 - - 0.0
25/06:30pm 9.2 6.6 6.1 81 1.4 W 9 13 5 7 - - 0.0
25/06:00pm 11.1 8.6 6.6 74 2.1 WSW 9 11 5 6 - - 0.0
25/05:30pm 13.4 10.3 7.2 66 3.0 WSW 13 17 7 9 - - 0.0
25/05:00pm 14.4 9.9 7.0 61 3.6 W 20 30 11 16 - - 0.0
25/04:30pm 14.4 9.2 5.7 56 4.2 W 22 30 12 16 - - 0.0
25/04:00pm 14.7 9.1 7.0 60 3.8 W 26 35 14 19 - - 0.0
25/03:30pm 15.0 9.9 7.8 62 3.6 WSW 24 33 13 18 - - 0.0
25/03:00pm 14.6 9.6 6.4 58 4.0 WSW 22 32 12 17 - - 0.0
25/02:30pm 15.4 10.7 7.7 60 3.9 W 22 35 12 19 - - 0.0
25/02:00pm 15.0 10.0 8.0 63 3.5 WSW 24 35 13 19 - - 0.0
25/01:30pm 15.3 11.0 9.4 68 3.1 WSW 22 35 12 19 - - 0.0
25/01:00pm 15.1 11.6 10.1 72 2.6 WSW 19 26 10 14 - - 0.0
25/12:30pm 15.0 10.9 11.6 80 1.8 WSW 24 33 13 18 - - 0.0
25/12:00pm 14.4 10.7 11.4 82 1.6 WSW 22 32 12 17 - - 0.0
25/11:30am 13.9 10.1 12.5 91 0.8 W 24 35 13 19 - - 0.0
25/11:00am 14.1 11.1 13.8 98 0.2 W 22 32 12 17 - - 0.0
25/10:30am 13.5 11.8 13.5 100 0.0 W 15 20 8 11 - - 0.0
25/10:00am 13.7 12.0 13.7 100 0.0 W 15 22 8 12 - - 0.0
25/09:30am 13.0 11.5 13.0 100 0.0 WSW 13 19 7 10 - - 0.0
25/09:00am 13.1 12.0 13.1 100 0.0 WSW 11 17 6 9 - - 3.2
25/08:30am 12.1 10.7 12.1 100 0.0 WSW 11 17 6 9 - - 3.2
25/08:00am 12.1 11.0 12.1 100 0.0 SW 9 13 5 7 - - 3.2
25/07:30am 11.4 10.5 11.4 100 0.0 WSW 7 11 4 6 - - 3.2
25/07:00am 11.0 10.0 11.0 100 0.0 SE 7 9 4 5 - - 3.2
25/06:30am 10.9 9.1 10.9 100 0.0 SW 11 17 6 9 - - 2.4
25/06:00am 11.1 9.8 11.1 100 0.0 SW 9 13 5 7 - - 2.2
25/05:30am 11.3 10.6 11.3 100 0.0 S 6 7 3 4 - - 2.2
25/05:00am 11.4 10.5 11.4 100 0.0 SSE 7 7 4 4 - - 2.2
25/04:30am 11.6 11.3 11.6 100 0.0 SSE 4 7 2 4 - - 2.2
25/04:00am 11.7 12.2 11.7 100 0.0 CALM 0 0 0 0 - - 2.2
25/03:30am 11.8 11.2 11.8 100 0.0 NNE 6 7 3 4 - - 2.2
25/03:00am 11.7 11.1 11.7 100 0.0 N 6 7 3 4 - - 2.0
25/02:30am 11.8 11.2 11.8 100 0.0 N 6 7 3 4 - - 2.0
25/02:00am 11.8 11.2 11.8 100 0.0 NNW 6 9 3 5 - - 1.8
25/01:30am 11.8 10.7 11.8 100 0.0 NW 9 13 5 7 - - 0.4
25/01:00am 11.8 12.4 11.8 100 0.0 CALM 0 6 0 3 - - 0.0
25/12:30am 12.0 11.5 12.0 100 0.0 NE 6 9 3 5 - - 0.0
25/12:00am 11.5 12.0 11.5 100 0.0 CALM 0 0 0 0 - - 0.0
 
Date/Time
EST
Temp
°C
App
Temp
°C
Dew
Point
°C
Rel
Hum
%
Delta-T
°C
Wind Press
QNH
hPa
Press
MSL
hPa
Rain since
9am
mm
Dir  Spd
km/h
Gust
km/h
Spd
kts
Gust
kts
24/11:30pm 11.3 11.7 11.3 100 0.0 CALM 0 0 0 0 - - 0.0
24/11:00pm 11.6 11.0 11.6 100 0.0 E 6 7 3 4 - - 0.0
24/10:30pm 12.0 11.5 12.0 100 0.0 ENE 6 6 3 3 - - 0.0
24/10:00pm 12.4 12.4 12.4 100 0.0 ENE 4 7 2 4 - - 0.0
24/09:30pm 12.3 11.7 12.3 100 0.0 ENE 7 9 4 5 - - 0.0
24/09:00pm 12.6 13.4 12.6 100 0.0 CALM 0 0 0 0 - - 0.0
24/08:30pm 12.4 13.2 12.4 100 0.0 CALM 0 0 0 0 - - 0.0
24/08:00pm 12.7 13.5 12.7 100 0.0 CALM 0 0 0 0 - - 0.0
24/07:30pm 13.0 13.9 13.0 100 0.0 CALM 0 0 0 0 - - 0.0
24/07:00pm 13.0 13.9 13.0 100 0.0 CALM 0 0 0 0 - - 0.0

Other Formats:

Comma delimited format used in spreadsheet applications
http://www.bom.gov.au/fwo/IDV60801/IDV60801.95837.axf

JavaScript Object Notation format (JSON) in row-major order
http://www.bom.gov.au/fwo/IDV60801/IDV60801.95837.json